sensor_id;sensor_type;location;lat;lon;timestamp;P1;durP1;ratioP1;P2;durP2;ratioP2
8317;SDS011;4196;48.926;8.964;2023-04-07T00:01:29;10.77;;;5.47;;
8317;SDS011;4196;48.926;8.964;2023-04-07T00:04:15;10.07;;;5.63;;
8317;SDS011;4196;48.926;8.964;2023-04-07T00:07:02;10.67;;;5.53;;
8317;SDS011;4196;48.926;8.964;2023-04-07T00:09:49;11.53;;;6.17;;
8317;SDS011;4196;48.926;8.964;2023-04-07T00:12:35;11.67;;;5.73;;
8317;SDS011;4196;48.926;8.964;2023-04-07T00:15:21;11.40;;;6.30;;
8317;SDS011;4196;48.926;8.964;2023-04-07T00:18:08;10.60;;;6.10;;
8317;SDS011;4196;48.926;8.964;2023-04-07T00:20:54;7.57;;;5.20;;
8317;SDS011;4196;48.926;8.964;2023-04-07T00:23:41;10.50;;;5.23;;
8317;SDS011;4196;48.926;8.964;2023-04-07T00:26:28;9.87;;;5.67;;
8317;SDS011;4196;48.926;8.964;2023-04-07T00:29:16;8.77;;;5.00;;
8317;SDS011;4196;48.926;8.964;2023-04-07T00:32:03;9.87;;;5.77;;
8317;SDS011;4196;48.926;8.964;2023-04-07T00:34:49;8.10;;;5.13;;
8317;SDS011;4196;48.926;8.964;2023-04-07T00:37:35;8.10;;;4.60;;
8317;SDS011;4196;48.926;8.964;2023-04-07T00:40:22;10.10;;;5.63;;
8317;SDS011;4196;48.926;8.964;2023-04-07T00:43:08;8.30;;;5.00;;
8317;SDS011;4196;48.926;8.964;2023-04-07T00:45:57;10.97;;;5.30;;
8317;SDS011;4196;48.926;8.964;2023-04-07T00:48:46;9.00;;;4.73;;
8317;SDS011;4196;48.926;8.964;2023-04-07T00:51:33;7.67;;;4.93;;
8317;SDS011;4196;48.926;8.964;2023-04-07T00:54:20;8.83;;;5.40;;
8317;SDS011;4196;48.926;8.964;2023-04-07T00:57:10;10.43;;;6.70;;
8317;SDS011;4196;48.926;8.964;2023-04-07T00:59:57;8.60;;;5.30;;
8317;SDS011;4196;48.926;8.964;2023-04-07T01:02:45;10.50;;;6.07;;
8317;SDS011;4196;48.926;8.964;2023-04-07T01:05:41;8.63;;;5.30;;
8317;SDS011;4196;48.926;8.964;2023-04-07T01:08:52;9.87;;;6.10;;
8317;SDS011;4196;48.926;8.964;2023-04-07T01:12:06;8.27;;;5.07;;
8317;SDS011;4196;48.926;8.964;2023-04-07T01:14:54;10.80;;;5.73;;
8317;SDS011;4196;48.926;8.964;2023-04-07T01:18:20;9.53;;;5.50;;
8317;SDS011;4196;48.926;8.964;2023-04-07T01:21:12;10.43;;;5.67;;
8317;SDS011;4196;48.926;8.964;2023-04-07T01:30:34;8.60;;;5.07;;
8317;SDS011;4196;48.926;8.964;2023-04-07T01:33:24;10.37;;;6.47;;
8317;SDS011;4196;48.926;8.964;2023-04-07T01:36:32;10.00;;;5.63;;
8317;SDS011;4196;48.926;8.964;2023-04-07T01:39:19;12.10;;;6.77;;
8317;SDS011;4196;48.926;8.964;2023-04-07T01:42:06;11.50;;;6.10;;
8317;SDS011;4196;48.926;8.964;2023-04-07T01:44:54;8.40;;;5.20;;
8317;SDS011;4196;48.926;8.964;2023-04-07T01:47:43;10.17;;;6.00;;
8317;SDS011;4196;48.926;8.964;2023-04-07T01:50:30;21.00;;;8.03;;
8317;SDS011;4196;48.926;8.964;2023-04-07T01:53:17;8.90;;;6.30;;
8317;SDS011;4196;48.926;8.964;2023-04-07T01:56:04;10.77;;;5.93;;
8317;SDS011;4196;48.926;8.964;2023-04-07T01:58:54;10.23;;;6.13;;
8317;SDS011;4196;48.926;8.964;2023-04-07T02:01:42;8.63;;;5.70;;
8317;SDS011;4196;48.926;8.964;2023-04-07T02:10:42;11.17;;;5.70;;
8317;SDS011;4196;48.926;8.964;2023-04-07T02:13:33;9.30;;;5.63;;
8317;SDS011;4196;48.926;8.964;2023-04-07T02:16:22;10.90;;;5.73;;
8317;SDS011;4196;48.926;8.964;2023-04-07T02:19:13;10.00;;;5.87;;
8317;SDS011;4196;48.926;8.964;2023-04-07T02:21:59;12.03;;;6.20;;
8317;SDS011;4196;48.926;8.964;2023-04-07T02:24:47;9.83;;;5.17;;
8317;SDS011;4196;48.926;8.964;2023-04-07T02:27:33;11.20;;;5.27;;
8317;SDS011;4196;48.926;8.964;2023-04-07T02:30:20;11.87;;;5.77;;
8317;SDS011;4196;48.926;8.964;2023-04-07T02:33:06;11.43;;;5.60;;
8317;SDS011;4196;48.926;8.964;2023-04-07T02:35:52;8.17;;;5.83;;
8317;SDS011;4196;48.926;8.964;2023-04-07T02:38:39;9.47;;;5.50;;
8317;SDS011;4196;48.926;8.964;2023-04-07T02:41:26;10.10;;;5.60;;
8317;SDS011;4196;48.926;8.964;2023-04-07T02:44:12;7.40;;;4.70;;
8317;SDS011;4196;48.926;8.964;2023-04-07T02:47:01;10.73;;;6.30;;
8317;SDS011;4196;48.926;8.964;2023-04-07T02:49:48;11.23;;;6.27;;
8317;SDS011;4196;48.926;8.964;2023-04-07T02:52:34;8.83;;;5.33;;
8317;SDS011;4196;48.926;8.964;2023-04-07T02:55:27;12.30;;;5.77;;
8317;SDS011;4196;48.926;8.964;2023-04-07T02:58:14;9.03;;;5.40;;
8317;SDS011;4196;48.926;8.964;2023-04-07T03:01:02;11.03;;;5.40;;
8317;SDS011;4196;48.926;8.964;2023-04-07T03:03:52;9.43;;;5.80;;
8317;SDS011;4196;48.926;8.964;2023-04-07T03:06:42;11.50;;;5.97;;
8317;SDS011;4196;48.926;8.964;2023-04-07T03:09:32;9.23;;;5.50;;
8317;SDS011;4196;48.926;8.964;2023-04-07T03:12:18;11.13;;;6.07;;
8317;SDS011;4196;48.926;8.964;2023-04-07T03:15:05;9.37;;;6.17;;
8317;SDS011;4196;48.926;8.964;2023-04-07T03:17:54;11.07;;;6.33;;
8317;SDS011;4196;48.926;8.964;2023-04-07T03:20:41;11.87;;;6.17;;
8317;SDS011;4196;48.926;8.964;2023-04-07T03:23:29;10.90;;;6.13;;
8317;SDS011;4196;48.926;8.964;2023-04-07T03:26:17;8.13;;;5.27;;
8317;SDS011;4196;48.926;8.964;2023-04-07T03:29:04;10.80;;;5.37;;
8317;SDS011;4196;48.926;8.964;2023-04-07T03:31:50;14.10;;;7.07;;
8317;SDS011;4196;48.926;8.964;2023-04-07T03:34:41;10.23;;;5.87;;
8317;SDS011;4196;48.926;8.964;2023-04-07T03:37:27;10.00;;;6.53;;
8317;SDS011;4196;48.926;8.964;2023-04-07T03:40:14;10.90;;;5.93;;
8317;SDS011;4196;48.926;8.964;2023-04-07T03:43:00;10.20;;;5.57;;
8317;SDS011;4196;48.926;8.964;2023-04-07T03:45:48;9.60;;;5.63;;
8317;SDS011;4196;48.926;8.964;2023-04-07T03:48:36;10.77;;;5.77;;
8317;SDS011;4196;48.926;8.964;2023-04-07T03:51:25;9.07;;;5.17;;
8317;SDS011;4196;48.926;8.964;2023-04-07T03:54:14;10.57;;;6.60;;
8317;SDS011;4196;48.926;8.964;2023-04-07T03:57:02;11.73;;;5.80;;
8317;SDS011;4196;48.926;8.964;2023-04-07T03:59:53;9.47;;;5.73;;
8317;SDS011;4196;48.926;8.964;2023-04-07T04:02:41;10.40;;;6.33;;
8317;SDS011;4196;48.926;8.964;2023-04-07T04:05:32;8.93;;;5.43;;
8317;SDS011;4196;48.926;8.964;2023-04-07T04:08:19;9.07;;;5.60;;
8317;SDS011;4196;48.926;8.964;2023-04-07T04:11:05;9.47;;;5.20;;
8317;SDS011;4196;48.926;8.964;2023-04-07T04:14:01;9.50;;;5.40;;
8317;SDS011;4196;48.926;8.964;2023-04-07T04:16:48;10.10;;;5.83;;
8317;SDS011;4196;48.926;8.964;2023-04-07T04:19:45;11.23;;;7.00;;
8317;SDS011;4196;48.926;8.964;2023-04-07T04:22:55;10.63;;;5.70;;
8317;SDS011;4196;48.926;8.964;2023-04-07T04:25:42;9.53;;;5.97;;
8317;SDS011;4196;48.926;8.964;2023-04-07T04:28:30;11.90;;;6.33;;
8317;SDS011;4196;48.926;8.964;2023-04-07T04:31:17;10.17;;;6.20;;
8317;SDS011;4196;48.926;8.964;2023-04-07T04:34:04;10.00;;;6.30;;
8317;SDS011;4196;48.926;8.964;2023-04-07T04:36:51;8.17;;;5.27;;
8317;SDS011;4196;48.926;8.964;2023-04-07T04:39:38;11.47;;;6.17;;
8317;SDS011;4196;48.926;8.964;2023-04-07T04:42:25;12.70;;;7.10;;
8317;SDS011;4196;48.926;8.964;2023-04-07T04:45:15;9.73;;;6.43;;
8317;SDS011;4196;48.926;8.964;2023-04-07T04:48:04;8.17;;;5.30;;
8317;SDS011;4196;48.926;8.964;2023-04-07T04:50:51;11.17;;;6.03;;
8317;SDS011;4196;48.926;8.964;2023-04-07T04:53:39;11.03;;;5.93;;
8317;SDS011;4196;48.926;8.964;2023-04-07T04:56:26;10.97;;;6.20;;
8317;SDS011;4196;48.926;8.964;2023-04-07T04:59:13;11.13;;;6.83;;
8317;SDS011;4196;48.926;8.964;2023-04-07T05:02:10;11.43;;;6.93;;
8317;SDS011;4196;48.926;8.964;2023-04-07T05:04:58;11.57;;;6.37;;
8317;SDS011;4196;48.926;8.964;2023-04-07T05:07:47;11.23;;;6.37;;
8317;SDS011;4196;48.926;8.964;2023-04-07T05:10:36;11.23;;;6.90;;
8317;SDS011;4196;48.926;8.964;2023-04-07T05:13:26;14.20;;;7.00;;
8317;SDS011;4196;48.926;8.964;2023-04-07T05:16:18;13.87;;;7.50;;
8317;SDS011;4196;48.926;8.964;2023-04-07T05:19:05;14.30;;;7.50;;
8317;SDS011;4196;48.926;8.964;2023-04-07T05:21:53;14.17;;;9.23;;
8317;SDS011;4196;48.926;8.964;2023-04-07T05:24:41;16.03;;;7.87;;
8317;SDS011;4196;48.926;8.964;2023-04-07T05:27:28;12.60;;;7.27;;
8317;SDS011;4196;48.926;8.964;2023-04-07T05:30:21;12.77;;;6.90;;
8317;SDS011;4196;48.926;8.964;2023-04-07T05:33:08;10.83;;;6.13;;
8317;SDS011;4196;48.926;8.964;2023-04-07T05:36:00;12.10;;;7.50;;
8317;SDS011;4196;48.926;8.964;2023-04-07T05:38:49;11.00;;;6.87;;
8317;SDS011;4196;48.926;8.964;2023-04-07T05:41:37;12.50;;;7.83;;
8317;SDS011;4196;48.926;8.964;2023-04-07T05:44:24;12.23;;;6.90;;
8317;SDS011;4196;48.926;8.964;2023-04-07T05:47:11;11.20;;;6.57;;
8317;SDS011;4196;48.926;8.964;2023-04-07T05:49:58;8.87;;;6.57;;
8317;SDS011;4196;48.926;8.964;2023-04-07T05:52:46;13.70;;;8.07;;
8317;SDS011;4196;48.926;8.964;2023-04-07T05:55:43;11.47;;;7.73;;
8317;SDS011;4196;48.926;8.964;2023-04-07T05:58:38;13.20;;;7.77;;
8317;SDS011;4196;48.926;8.964;2023-04-07T06:01:24;14.33;;;7.90;;
8317;SDS011;4196;48.926;8.964;2023-04-07T06:04:13;13.17;;;7.37;;
8317;SDS011;4196;48.926;8.964;2023-04-07T06:07:01;14.63;;;8.33;;
8317;SDS011;4196;48.926;8.964;2023-04-07T06:09:47;12.77;;;7.90;;
8317;SDS011;4196;48.926;8.964;2023-04-07T06:12:34;17.13;;;8.73;;
8317;SDS011;4196;48.926;8.964;2023-04-07T06:15:22;13.03;;;7.60;;
8317;SDS011;4196;48.926;8.964;2023-04-07T06:18:08;16.13;;;8.20;;
8317;SDS011;4196;48.926;8.964;2023-04-07T06:20:55;13.30;;;8.07;;
8317;SDS011;4196;48.926;8.964;2023-04-07T06:23:44;16.73;;;7.30;;
8317;SDS011;4196;48.926;8.964;2023-04-07T06:26:31;17.87;;;7.93;;
8317;SDS011;4196;48.926;8.964;2023-04-07T06:29:21;11.43;;;6.70;;
8317;SDS011;4196;48.926;8.964;2023-04-07T06:32:07;14.30;;;8.33;;
8317;SDS011;4196;48.926;8.964;2023-04-07T06:34:54;11.83;;;6.80;;
8317;SDS011;4196;48.926;8.964;2023-04-07T06:37:41;14.33;;;6.77;;
8317;SDS011;4196;48.926;8.964;2023-04-07T06:40:28;13.57;;;7.47;;
8317;SDS011;4196;48.926;8.964;2023-04-07T06:43:14;9.90;;;6.20;;
8317;SDS011;4196;48.926;8.964;2023-04-07T06:46:12;9.10;;;5.83;;
8317;SDS011;4196;48.926;8.964;2023-04-07T06:48:59;10.13;;;6.70;;
8317;SDS011;4196;48.926;8.964;2023-04-07T06:51:46;10.50;;;6.43;;
8317;SDS011;4196;48.926;8.964;2023-04-07T06:54:32;11.57;;;6.83;;
8317;SDS011;4196;48.926;8.964;2023-04-07T06:57:19;9.87;;;6.53;;
8317;SDS011;4196;48.926;8.964;2023-04-07T07:00:05;9.93;;;6.33;;
8317;SDS011;4196;48.926;8.964;2023-04-07T07:02:57;8.50;;;5.30;;
8317;SDS011;4196;48.926;8.964;2023-04-07T07:05:44;10.57;;;6.17;;
8317;SDS011;4196;48.926;8.964;2023-04-07T07:08:32;11.57;;;6.60;;
8317;SDS011;4196;48.926;8.964;2023-04-07T07:11:18;10.77;;;5.97;;
8317;SDS011;4196;48.926;8.964;2023-04-07T07:14:05;10.43;;;5.63;;
8317;SDS011;4196;48.926;8.964;2023-04-07T07:16:52;11.97;;;4.90;;
8317;SDS011;4196;48.926;8.964;2023-04-07T07:19:38;13.67;;;6.77;;
8317;SDS011;4196;48.926;8.964;2023-04-07T07:22:25;9.60;;;5.30;;
8317;SDS011;4196;48.926;8.964;2023-04-07T07:25:11;9.17;;;5.50;;
8317;SDS011;4196;48.926;8.964;2023-04-07T07:27:58;9.00;;;5.63;;
8317;SDS011;4196;48.926;8.964;2023-04-07T07:30:44;10.70;;;5.97;;
8317;SDS011;4196;48.926;8.964;2023-04-07T07:33:31;8.43;;;5.10;;
8317;SDS011;4196;48.926;8.964;2023-04-07T07:36:17;9.10;;;5.70;;
8317;SDS011;4196;48.926;8.964;2023-04-07T07:39:04;7.67;;;5.20;;
8317;SDS011;4196;48.926;8.964;2023-04-07T07:41:50;9.73;;;5.20;;
8317;SDS011;4196;48.926;8.964;2023-04-07T07:44:37;9.47;;;4.83;;
8317;SDS011;4196;48.926;8.964;2023-04-07T07:47:24;11.07;;;5.83;;
8317;SDS011;4196;48.926;8.964;2023-04-07T07:50:11;8.40;;;4.83;;
8317;SDS011;4196;48.926;8.964;2023-04-07T07:52:57;9.53;;;4.37;;
8317;SDS011;4196;48.926;8.964;2023-04-07T07:55:44;6.57;;;4.53;;
8317;SDS011;4196;48.926;8.964;2023-04-07T07:58:32;7.33;;;4.57;;
8317;SDS011;4196;48.926;8.964;2023-04-07T08:01:18;9.93;;;5.37;;
8317;SDS011;4196;48.926;8.964;2023-04-07T08:04:04;7.83;;;5.50;;
8317;SDS011;4196;48.926;8.964;2023-04-07T08:06:51;6.07;;;4.17;;
8317;SDS011;4196;48.926;8.964;2023-04-07T08:09:38;5.70;;;4.27;;
8317;SDS011;4196;48.926;8.964;2023-04-07T08:12:24;6.37;;;4.77;;
8317;SDS011;4196;48.926;8.964;2023-04-07T08:15:11;6.43;;;4.37;;
8317;SDS011;4196;48.926;8.964;2023-04-07T08:17:57;6.80;;;4.27;;
8317;SDS011;4196;48.926;8.964;2023-04-07T08:20:45;4.33;;;3.80;;
8317;SDS011;4196;48.926;8.964;2023-04-07T08:23:31;7.67;;;3.67;;
8317;SDS011;4196;48.926;8.964;2023-04-07T08:26:18;7.23;;;3.70;;
8317;SDS011;4196;48.926;8.964;2023-04-07T08:29:04;7.33;;;4.03;;
8317;SDS011;4196;48.926;8.964;2023-04-07T08:31:51;4.40;;;3.17;;
8317;SDS011;4196;48.926;8.964;2023-04-07T08:34:38;4.00;;;3.20;;
8317;SDS011;4196;48.926;8.964;2023-04-07T08:37:24;6.13;;;3.57;;
8317;SDS011;4196;48.926;8.964;2023-04-07T08:40:11;4.63;;;3.43;;
8317;SDS011;4196;48.926;8.964;2023-04-07T08:42:58;4.03;;;3.30;;
8317;SDS011;4196;48.926;8.964;2023-04-07T08:45:45;4.90;;;3.33;;
8317;SDS011;4196;48.926;8.964;2023-04-07T08:48:33;3.93;;;2.97;;
8317;SDS011;4196;48.926;8.964;2023-04-07T08:51:27;8.33;;;3.73;;
8317;SDS011;4196;48.926;8.964;2023-04-07T08:54:17;6.20;;;4.20;;
8317;SDS011;4196;48.926;8.964;2023-04-07T08:57:07;4.77;;;3.53;;
8317;SDS011;4196;48.926;8.964;2023-04-07T08:59:53;7.17;;;4.83;;
8317;SDS011;4196;48.926;8.964;2023-04-07T09:02:40;3.87;;;2.87;;
8317;SDS011;4196;48.926;8.964;2023-04-07T09:05:33;5.53;;;3.67;;
8317;SDS011;4196;48.926;8.964;2023-04-07T09:08:19;4.00;;;3.30;;
8317;SDS011;4196;48.926;8.964;2023-04-07T09:11:06;6.23;;;3.53;;
8317;SDS011;4196;48.926;8.964;2023-04-07T09:13:53;5.53;;;3.70;;
8317;SDS011;4196;48.926;8.964;2023-04-07T09:16:40;4.00;;;3.10;;
8317;SDS011;4196;48.926;8.964;2023-04-07T09:19:27;3.50;;;2.90;;
8317;SDS011;4196;48.926;8.964;2023-04-07T09:22:18;6.97;;;3.60;;
8317;SDS011;4196;48.926;8.964;2023-04-07T09:25:21;5.37;;;3.03;;
8317;SDS011;4196;48.926;8.964;2023-04-07T09:28:09;5.30;;;3.30;;
8317;SDS011;4196;48.926;8.964;2023-04-07T09:30:55;3.53;;;2.67;;
8317;SDS011;4196;48.926;8.964;2023-04-07T09:33:42;5.33;;;2.53;;
8317;SDS011;4196;48.926;8.964;2023-04-07T09:36:33;3.13;;;2.00;;
8317;SDS011;4196;48.926;8.964;2023-04-07T09:39:26;3.60;;;1.93;;
8317;SDS011;4196;48.926;8.964;2023-04-07T09:42:15;4.13;;;2.30;;
8317;SDS011;4196;48.926;8.964;2023-04-07T09:45:02;2.27;;;2.00;;
8317;SDS011;4196;48.926;8.964;2023-04-07T09:47:49;3.10;;;1.77;;
8317;SDS011;4196;48.926;8.964;2023-04-07T09:50:38;3.17;;;1.83;;
8317;SDS011;4196;48.926;8.964;2023-04-07T09:53:39;4.53;;;1.87;;
8317;SDS011;4196;48.926;8.964;2023-04-07T09:56:31;2.90;;;2.23;;
8317;SDS011;4196;48.926;8.964;2023-04-07T09:59:19;4.47;;;1.87;;
8317;SDS011;4196;48.926;8.964;2023-04-07T10:02:06;1.73;;;1.63;;
8317;SDS011;4196;48.926;8.964;2023-04-07T10:04:53;6.00;;;1.87;;
8317;SDS011;4196;48.926;8.964;2023-04-07T10:07:39;2.43;;;1.57;;
8317;SDS011;4196;48.926;8.964;2023-04-07T10:10:28;3.13;;;1.90;;
8317;SDS011;4196;48.926;8.964;2023-04-07T10:13:15;5.37;;;1.93;;
8317;SDS011;4196;48.926;8.964;2023-04-07T10:16:03;2.83;;;1.70;;
8317;SDS011;4196;48.926;8.964;2023-04-07T10:18:51;2.33;;;1.90;;
8317;SDS011;4196;48.926;8.964;2023-04-07T10:21:41;2.53;;;2.10;;
8317;SDS011;4196;48.926;8.964;2023-04-07T10:27:32;4.00;;;1.90;;
8317;SDS011;4196;48.926;8.964;2023-04-07T10:33:14;4.67;;;2.30;;
8317;SDS011;4196;48.926;8.964;2023-04-07T10:36:05;2.87;;;1.90;;
8317;SDS011;4196;48.926;8.964;2023-04-07T10:41:53;4.50;;;2.20;;
8317;SDS011;4196;48.926;8.964;2023-04-07T10:47:27;6.17;;;2.77;;
8317;SDS011;4196;48.926;8.964;2023-04-07T10:50:17;3.40;;;2.03;;
8317;SDS011;4196;48.926;8.964;2023-04-07T10:53:09;5.20;;;2.20;;
8317;SDS011;4196;48.926;8.964;2023-04-07T10:55:57;3.17;;;2.17;;
8317;SDS011;4196;48.926;8.964;2023-04-07T10:58:47;2.20;;;2.00;;
8317;SDS011;4196;48.926;8.964;2023-04-07T11:02:29;4.23;;;2.20;;
8317;SDS011;4196;48.926;8.964;2023-04-07T11:05:18;4.23;;;2.40;;
8317;SDS011;4196;48.926;8.964;2023-04-07T11:08:06;3.13;;;1.90;;
8317;SDS011;4196;48.926;8.964;2023-04-07T11:10:53;4.00;;;2.10;;
8317;SDS011;4196;48.926;8.964;2023-04-07T11:13:39;4.07;;;2.40;;
8317;SDS011;4196;48.926;8.964;2023-04-07T11:16:41;5.30;;;2.83;;
8317;SDS011;4196;48.926;8.964;2023-04-07T11:19:29;5.47;;;3.10;;
8317;SDS011;4196;48.926;8.964;2023-04-07T11:22:17;6.67;;;4.20;;
8317;SDS011;4196;48.926;8.964;2023-04-07T11:25:19;7.27;;;4.67;;
8317;SDS011;4196;48.926;8.964;2023-04-07T11:28:08;3.70;;;2.87;;
8317;SDS011;4196;48.926;8.964;2023-04-07T11:30:55;3.50;;;2.97;;
8317;SDS011;4196;48.926;8.964;2023-04-07T11:33:43;4.17;;;2.10;;
8317;SDS011;4196;48.926;8.964;2023-04-07T11:36:39;4.53;;;2.70;;
8317;SDS011;4196;48.926;8.964;2023-04-07T11:39:26;2.97;;;2.17;;
8317;SDS011;4196;48.926;8.964;2023-04-07T11:42:24;2.77;;;2.50;;
8317;SDS011;4196;48.926;8.964;2023-04-07T11:45:17;3.03;;;2.00;;
8317;SDS011;4196;48.926;8.964;2023-04-07T11:48:24;3.90;;;2.20;;
8317;SDS011;4196;48.926;8.964;2023-04-07T11:51:15;4.63;;;2.77;;
8317;SDS011;4196;48.926;8.964;2023-04-07T11:54:06;3.60;;;2.77;;
8317;SDS011;4196;48.926;8.964;2023-04-07T11:56:52;7.00;;;3.33;;
8317;SDS011;4196;48.926;8.964;2023-04-07T11:59:40;3.97;;;2.90;;
8317;SDS011;4196;48.926;8.964;2023-04-07T12:02:31;6.57;;;3.20;;
8317;SDS011;4196;48.926;8.964;2023-04-07T12:05:18;6.20;;;3.87;;
8317;SDS011;4196;48.926;8.964;2023-04-07T12:08:05;5.13;;;3.90;;
8317;SDS011;4196;48.926;8.964;2023-04-07T12:11:01;3.90;;;3.50;;
8317;SDS011;4196;48.926;8.964;2023-04-07T12:13:49;6.07;;;4.13;;
8317;SDS011;4196;48.926;8.964;2023-04-07T12:16:39;6.63;;;4.07;;
8317;SDS011;4196;48.926;8.964;2023-04-07T12:19:26;6.97;;;4.37;;
8317;SDS011;4196;48.926;8.964;2023-04-07T12:22:13;7.77;;;4.43;;
8317;SDS011;4196;48.926;8.964;2023-04-07T12:25:00;5.83;;;4.20;;
8317;SDS011;4196;48.926;8.964;2023-04-07T12:27:47;6.90;;;4.53;;
8317;SDS011;4196;48.926;8.964;2023-04-07T12:30:33;6.83;;;3.97;;
8317;SDS011;4196;48.926;8.964;2023-04-07T12:33:19;4.60;;;3.23;;
8317;SDS011;4196;48.926;8.964;2023-04-07T12:36:06;4.53;;;3.30;;
8317;SDS011;4196;48.926;8.964;2023-04-07T12:38:53;5.97;;;3.60;;
8317;SDS011;4196;48.926;8.964;2023-04-07T12:41:39;6.10;;;4.27;;
8317;SDS011;4196;48.926;8.964;2023-04-07T12:44:26;6.27;;;3.90;;
8317;SDS011;4196;48.926;8.964;2023-04-07T12:47:13;5.37;;;4.13;;
8317;SDS011;4196;48.926;8.964;2023-04-07T12:50:02;6.67;;;3.60;;
8317;SDS011;4196;48.926;8.964;2023-04-07T12:52:49;4.87;;;3.43;;
8317;SDS011;4196;48.926;8.964;2023-04-07T12:55:37;3.63;;;3.00;;
8317;SDS011;4196;48.926;8.964;2023-04-07T12:58:23;5.07;;;3.60;;
8317;SDS011;4196;48.926;8.964;2023-04-07T13:01:11;7.60;;;3.83;;
8317;SDS011;4196;48.926;8.964;2023-04-07T13:03:58;3.63;;;3.33;;
8317;SDS011;4196;48.926;8.964;2023-04-07T13:06:44;6.97;;;3.97;;
8317;SDS011;4196;48.926;8.964;2023-04-07T13:09:30;5.60;;;3.93;;
8317;SDS011;4196;48.926;8.964;2023-04-07T13:12:17;6.17;;;4.10;;
8317;SDS011;4196;48.926;8.964;2023-04-07T13:15:03;5.53;;;3.60;;
8317;SDS011;4196;48.926;8.964;2023-04-07T13:17:50;3.53;;;3.10;;
8317;SDS011;4196;48.926;8.964;2023-04-07T13:20:37;5.77;;;3.83;;
8317;SDS011;4196;48.926;8.964;2023-04-07T13:23:24;4.07;;;3.40;;
8317;SDS011;4196;48.926;8.964;2023-04-07T13:26:11;5.87;;;3.37;;
8317;SDS011;4196;48.926;8.964;2023-04-07T13:28:58;5.47;;;3.30;;
8317;SDS011;4196;48.926;8.964;2023-04-07T13:31:44;4.63;;;2.87;;
8317;SDS011;4196;48.926;8.964;2023-04-07T13:34:31;6.07;;;3.43;;
8317;SDS011;4196;48.926;8.964;2023-04-07T13:37:19;4.63;;;3.23;;
8317;SDS011;4196;48.926;8.964;2023-04-07T13:40:05;3.50;;;2.70;;
8317;SDS011;4196;48.926;8.964;2023-04-07T13:42:53;4.87;;;3.00;;
8317;SDS011;4196;48.926;8.964;2023-04-07T13:45:39;3.90;;;3.17;;
8317;SDS011;4196;48.926;8.964;2023-04-07T13:48:26;3.13;;;2.77;;
8317;SDS011;4196;48.926;8.964;2023-04-07T13:51:13;3.37;;;3.10;;
8317;SDS011;4196;48.926;8.964;2023-04-07T13:53:59;5.97;;;3.43;;
8317;SDS011;4196;48.926;8.964;2023-04-07T13:56:45;3.93;;;2.70;;
8317;SDS011;4196;48.926;8.964;2023-04-07T13:59:34;3.17;;;2.87;;
8317;SDS011;4196;48.926;8.964;2023-04-07T14:02:20;3.63;;;2.80;;
8317;SDS011;4196;48.926;8.964;2023-04-07T14:05:07;3.77;;;3.07;;
8317;SDS011;4196;48.926;8.964;2023-04-07T14:07:54;4.33;;;3.43;;
8317;SDS011;4196;48.926;8.964;2023-04-07T14:10:40;3.83;;;2.77;;
8317;SDS011;4196;48.926;8.964;2023-04-07T14:13:29;3.17;;;2.63;;
8317;SDS011;4196;48.926;8.964;2023-04-07T14:16:16;3.83;;;2.77;;
8317;SDS011;4196;48.926;8.964;2023-04-07T14:19:03;4.17;;;2.50;;
8317;SDS011;4196;48.926;8.964;2023-04-07T14:21:50;3.87;;;2.60;;
8317;SDS011;4196;48.926;8.964;2023-04-07T14:24:36;3.63;;;2.50;;
8317;SDS011;4196;48.926;8.964;2023-04-07T14:27:23;4.70;;;2.97;;
8317;SDS011;4196;48.926;8.964;2023-04-07T14:30:09;5.00;;;3.03;;
8317;SDS011;4196;48.926;8.964;2023-04-07T14:32:56;5.60;;;2.80;;
8317;SDS011;4196;48.926;8.964;2023-04-07T14:35:43;4.20;;;3.00;;
8317;SDS011;4196;48.926;8.964;2023-04-07T14:38:29;2.90;;;2.50;;
8317;SDS011;4196;48.926;8.964;2023-04-07T14:41:18;3.57;;;3.27;;
8317;SDS011;4196;48.926;8.964;2023-04-07T14:44:05;3.03;;;2.70;;
8317;SDS011;4196;48.926;8.964;2023-04-07T14:46:51;4.30;;;3.10;;
8317;SDS011;4196;48.926;8.964;2023-04-07T14:49:38;3.00;;;2.70;;
8317;SDS011;4196;48.926;8.964;2023-04-07T14:52:24;5.13;;;2.90;;
8317;SDS011;4196;48.926;8.964;2023-04-07T14:55:11;5.47;;;2.37;;
8317;SDS011;4196;48.926;8.964;2023-04-07T14:57:57;5.30;;;3.10;;
8317;SDS011;4196;48.926;8.964;2023-04-07T15:00:44;3.87;;;2.83;;
8317;SDS011;4196;48.926;8.964;2023-04-07T15:03:31;3.27;;;2.97;;
8317;SDS011;4196;48.926;8.964;2023-04-07T15:06:19;3.77;;;2.97;;
8317;SDS011;4196;48.926;8.964;2023-04-07T15:09:05;3.27;;;2.57;;
8317;SDS011;4196;48.926;8.964;2023-04-07T15:11:51;4.63;;;2.67;;
8317;SDS011;4196;48.926;8.964;2023-04-07T15:14:38;4.10;;;3.10;;
8317;SDS011;4196;48.926;8.964;2023-04-07T15:17:25;3.70;;;2.40;;
8317;SDS011;4196;48.926;8.964;2023-04-07T15:20:28;7.53;;;2.87;;
8317;SDS011;4196;48.926;8.964;2023-04-07T15:23:14;6.80;;;2.73;;
8317;SDS011;4196;48.926;8.964;2023-04-07T15:26:01;3.60;;;2.47;;
8317;SDS011;4196;48.926;8.964;2023-04-07T15:28:48;4.30;;;2.87;;
8317;SDS011;4196;48.926;8.964;2023-04-07T15:31:34;3.00;;;2.70;;
8317;SDS011;4196;48.926;8.964;2023-04-07T15:34:21;2.80;;;2.50;;
8317;SDS011;4196;48.926;8.964;2023-04-07T15:37:07;3.73;;;2.70;;
8317;SDS011;4196;48.926;8.964;2023-04-07T15:39:54;5.87;;;1.70;;
8317;SDS011;4196;48.926;8.964;2023-04-07T15:42:41;4.23;;;1.77;;
8317;SDS011;4196;48.926;8.964;2023-04-07T15:45:27;1.70;;;1.60;;
8317;SDS011;4196;48.926;8.964;2023-04-07T15:48:13;2.00;;;1.70;;
8317;SDS011;4196;48.926;8.964;2023-04-07T15:51:00;1.30;;;1.20;;
8317;SDS011;4196;48.926;8.964;2023-04-07T15:53:47;1.80;;;1.20;;
8317;SDS011;4196;48.926;8.964;2023-04-07T15:56:34;3.63;;;1.53;;
8317;SDS011;4196;48.926;8.964;2023-04-07T15:59:21;1.30;;;1.20;;
8317;SDS011;4196;48.926;8.964;2023-04-07T16:02:07;2.07;;;1.60;;
8317;SDS011;4196;48.926;8.964;2023-04-07T16:04:54;3.50;;;2.30;;
8317;SDS011;4196;48.926;8.964;2023-04-07T16:07:41;1.53;;;1.43;;
8317;SDS011;4196;48.926;8.964;2023-04-07T16:10:27;5.40;;;2.67;;
8317;SDS011;4196;48.926;8.964;2023-04-07T16:13:14;2.40;;;1.73;;
8317;SDS011;4196;48.926;8.964;2023-04-07T16:16:01;1.87;;;1.73;;
8317;SDS011;4196;48.926;8.964;2023-04-07T16:18:48;3.23;;;1.67;;
8317;SDS011;4196;48.926;8.964;2023-04-07T16:21:34;2.67;;;1.93;;
8317;SDS011;4196;48.926;8.964;2023-04-07T16:24:21;2.27;;;1.63;;
8317;SDS011;4196;48.926;8.964;2023-04-07T16:27:08;2.10;;;1.90;;
8317;SDS011;4196;48.926;8.964;2023-04-07T16:29:57;2.27;;;2.00;;
8317;SDS011;4196;48.926;8.964;2023-04-07T16:32:44;3.53;;;2.23;;
8317;SDS011;4196;48.926;8.964;2023-04-07T16:35:31;2.60;;;2.40;;
8317;SDS011;4196;48.926;8.964;2023-04-07T16:38:18;2.77;;;1.90;;
8317;SDS011;4196;48.926;8.964;2023-04-07T16:41:08;3.10;;;2.10;;
8317;SDS011;4196;48.926;8.964;2023-04-07T16:43:54;3.33;;;2.30;;
8317;SDS011;4196;48.926;8.964;2023-04-07T16:46:41;2.57;;;2.17;;
8317;SDS011;4196;48.926;8.964;2023-04-07T16:49:28;3.07;;;2.03;;
8317;SDS011;4196;48.926;8.964;2023-04-07T16:52:14;5.70;;;4.00;;
8317;SDS011;4196;48.926;8.964;2023-04-07T16:55:01;2.87;;;2.13;;
8317;SDS011;4196;48.926;8.964;2023-04-07T16:57:48;5.00;;;2.50;;
8317;SDS011;4196;48.926;8.964;2023-04-07T17:00:35;4.87;;;3.57;;
8317;SDS011;4196;48.926;8.964;2023-04-07T17:03:21;2.30;;;1.93;;
8317;SDS011;4196;48.926;8.964;2023-04-07T17:06:08;4.10;;;3.13;;
8317;SDS011;4196;48.926;8.964;2023-04-07T17:08:54;4.80;;;3.30;;
8317;SDS011;4196;48.926;8.964;2023-04-07T17:11:41;4.37;;;3.43;;
8317;SDS011;4196;48.926;8.964;2023-04-07T17:14:27;83.50;;;34.50;;
8317;SDS011;4196;48.926;8.964;2023-04-07T17:17:15;31.03;;;15.10;;
8317;SDS011;4196;48.926;8.964;2023-04-07T17:20:01;63.70;;;26.43;;
8317;SDS011;4196;48.926;8.964;2023-04-07T17:22:48;24.27;;;13.20;;
8317;SDS011;4196;48.926;8.964;2023-04-07T17:25:36;5.70;;;4.00;;
8317;SDS011;4196;48.926;8.964;2023-04-07T17:28:24;4.40;;;3.53;;
8317;SDS011;4196;48.926;8.964;2023-04-07T17:31:11;1.80;;;1.70;;
8317;SDS011;4196;48.926;8.964;2023-04-07T17:33:58;2.83;;;2.00;;
8317;SDS011;4196;48.926;8.964;2023-04-07T17:36:45;17.63;;;10.90;;
8317;SDS011;4196;48.926;8.964;2023-04-07T17:39:32;2.37;;;2.17;;
8317;SDS011;4196;48.926;8.964;2023-04-07T17:42:19;7.83;;;4.17;;
8317;SDS011;4196;48.926;8.964;2023-04-07T17:45:05;3.40;;;2.33;;